sensor_id;sensor_type;location;lat;lon;timestamp;pressure;altitude;pressure_sealevel;temperature;humidity
16834;BME280;8533;48.426;10.868;2023-03-21T00:00:42;96365.34;;;7.78;100.00
16834;BME280;8533;48.426;10.868;2023-03-21T00:03:10;96365.05;;;7.77;100.00
16834;BME280;8533;48.426;10.868;2023-03-21T00:05:41;96362.45;;;7.77;100.00
16834;BME280;8533;48.426;10.868;2023-03-21T00:08:11;96357.45;;;7.76;100.00
16834;BME280;8533;48.426;10.868;2023-03-21T00:10:38;96360.28;;;7.74;100.00
16834;BME280;8533;48.426;10.868;2023-03-21T00:13:06;96361.29;;;7.73;100.00
16834;BME280;8533;48.426;10.868;2023-03-21T00:15:34;96355.00;;;7.72;100.00
16834;BME280;8533;48.426;10.868;2023-03-21T00:18:03;96355.24;;;7.70;100.00
16834;BME280;8533;48.426;10.868;2023-03-21T00:20:33;96347.14;;;7.69;100.00
16834;BME280;8533;48.426;10.868;2023-03-21T00:23:00;96351.77;;;7.67;100.00
16834;BME280;8533;48.426;10.868;2023-03-21T00:25:29;96349.88;;;7.65;100.00
16834;BME280;8533;48.426;10.868;2023-03-21T00:27:58;96349.05;;;7.62;100.00
16834;BME280;8533;48.426;10.868;2023-03-21T00:30:25;96353.38;;;7.59;100.00
16834;BME280;8533;48.426;10.868;2023-03-21T00:32:53;96348.31;;;7.55;100.00
16834;BME280;8533;48.426;10.868;2023-03-21T00:35:20;96339.37;;;7.51;100.00
16834;BME280;8533;48.426;10.868;2023-03-21T00:37:48;96339.08;;;7.50;100.00
16834;BME280;8533;48.426;10.868;2023-03-21T00:40:16;96335.17;;;7.50;100.00
16834;BME280;8533;48.426;10.868;2023-03-21T00:42:43;96332.78;;;7.48;100.00
16834;BME280;8533;48.426;10.868;2023-03-21T00:45:11;96333.88;;;7.50;100.00
16834;BME280;8533;48.426;10.868;2023-03-21T00:47:38;96333.29;;;7.48;100.00
16834;BME280;8533;48.426;10.868;2023-03-21T00:50:06;96326.49;;;7.47;100.00
16834;BME280;8533;48.426;10.868;2023-03-21T00:52:33;96327.29;;;7.47;100.00
16834;BME280;8533;48.426;10.868;2023-03-21T00:55:01;96322.55;;;7.44;100.00
16834;BME280;8533;48.426;10.868;2023-03-21T00:57:29;96319.14;;;7.44;100.00
16834;BME280;8533;48.426;10.868;2023-03-21T00:59:56;96314.66;;;7.42;100.00
16834;BME280;8533;48.426;10.868;2023-03-21T01:02:25;96308.59;;;7.39;100.00
16834;BME280;8533;48.426;10.868;2023-03-21T01:04:53;96309.63;;;7.38;100.00
16834;BME280;8533;48.426;10.868;2023-03-21T01:07:21;96308.83;;;7.37;100.00
16834;BME280;8533;48.426;10.868;2023-03-21T01:09:48;96306.73;;;7.37;100.00
16834;BME280;8533;48.426;10.868;2023-03-21T01:12:16;96302.97;;;7.33;100.00
16834;BME280;8533;48.426;10.868;2023-03-21T01:14:43;96301.95;;;7.34;100.00
16834;BME280;8533;48.426;10.868;2023-03-21T01:17:11;96303.77;;;7.33;100.00
16834;BME280;8533;48.426;10.868;2023-03-21T01:19:39;96303.98;;;7.32;100.00
16834;BME280;8533;48.426;10.868;2023-03-21T01:22:07;96308.89;;;7.31;100.00
16834;BME280;8533;48.426;10.868;2023-03-21T01:24:35;96312.00;;;7.30;100.00
16834;BME280;8533;48.426;10.868;2023-03-21T01:27:02;96302.63;;;7.29;100.00
16834;BME280;8533;48.426;10.868;2023-03-21T01:29:31;96298.73;;;7.29;100.00
16834;BME280;8533;48.426;10.868;2023-03-21T01:31:58;96296.48;;;7.23;100.00
16834;BME280;8533;48.426;10.868;2023-03-21T01:34:26;96309.47;;;7.33;100.00
16834;BME280;8533;48.426;10.868;2023-03-21T01:36:54;96305.86;;;7.34;100.00
16834;BME280;8533;48.426;10.868;2023-03-21T01:39:21;96298.85;;;7.34;100.00
16834;BME280;8533;48.426;10.868;2023-03-21T01:41:49;96302.25;;;7.35;100.00
16834;BME280;8533;48.426;10.868;2023-03-21T01:44:18;96297.34;;;7.36;100.00
16834;BME280;8533;48.426;10.868;2023-03-21T01:46:50;96300.52;;;7.38;100.00
16834;BME280;8533;48.426;10.868;2023-03-21T01:49:30;96298.42;;;7.37;100.00
16834;BME280;8533;48.426;10.868;2023-03-21T01:52:10;96301.58;;;7.39;100.00
16834;BME280;8533;48.426;10.868;2023-03-21T01:54:35;96294.06;;;7.40;100.00
16834;BME280;8533;48.426;10.868;2023-03-21T01:57:06;96296.45;;;7.42;100.00
16834;BME280;8533;48.426;10.868;2023-03-21T01:59:36;96294.64;;;7.42;100.00
16834;BME280;8533;48.426;10.868;2023-03-21T02:02:07;96289.22;;;7.44;100.00
16834;BME280;8533;48.426;10.868;2023-03-21T02:04:37;96295.77;;;7.46;100.00
16834;BME280;8533;48.426;10.868;2023-03-21T02:07:08;96288.21;;;7.45;100.00
16834;BME280;8533;48.426;10.868;2023-03-21T02:09:37;96286.62;;;7.44;100.00
16834;BME280;8533;48.426;10.868;2023-03-21T02:12:07;96283.73;;;7.43;100.00
16834;BME280;8533;48.426;10.868;2023-03-21T02:14:36;96280.11;;;7.44;100.00
16834;BME280;8533;48.426;10.868;2023-03-21T02:17:13;96276.93;;;7.42;100.00
16834;BME280;8533;48.426;10.868;2023-03-21T02:22:36;96276.64;;;7.41;100.00
16834;BME280;8533;48.426;10.868;2023-03-21T02:41:37;96276.64;;;7.41;100.00
16834;BME280;8533;48.426;10.868;2023-03-21T02:44:07;96274.04;;;7.41;100.00
16834;BME280;8533;48.426;10.868;2023-03-21T02:49:51;96275.84;;;7.40;100.00
16834;BME280;8533;48.426;10.868;2023-03-21T02:52:23;96272.23;;;7.41;100.00
16834;BME280;8533;48.426;10.868;2023-03-21T02:54:51;96271.66;;;7.39;100.00
16834;BME280;8533;48.426;10.868;2023-03-21T02:57:19;96271.90;;;7.38;100.00
16834;BME280;8533;48.426;10.868;2023-03-21T02:59:49;96266.16;;;7.38;100.00
16834;BME280;8533;48.426;10.868;2023-03-21T03:02:20;96276.81;;;7.37;100.00
16834;BME280;8533;48.426;10.868;2023-03-21T03:04:48;96269.73;;;7.35;100.00
16834;BME280;8533;48.426;10.868;2023-03-21T03:10:27;96264.09;;;7.38;100.00
16834;BME280;8533;48.426;10.868;2023-03-21T03:15:33;96262.00;;;7.37;100.00
16834;BME280;8533;48.426;10.868;2023-03-21T03:23:56;96263.52;;;7.36;100.00
16834;BME280;8533;48.426;10.868;2023-03-21T03:26:27;96260.04;;;7.33;100.00
16834;BME280;8533;48.426;10.868;2023-03-21T03:28:57;96258.73;;;7.33;100.00
16834;BME280;8533;48.426;10.868;2023-03-21T03:31:32;96255.51;;;7.28;100.00
16834;BME280;8533;48.426;10.868;2023-03-21T03:33:58;96256.23;;;7.26;100.00
16834;BME280;8533;48.426;10.868;2023-03-21T03:42:40;96254.23;;;7.19;100.00
16834;BME280;8533;48.426;10.868;2023-03-21T03:45:06;96254.95;;;7.17;100.00
16834;BME280;8533;48.426;10.868;2023-03-21T03:51:08;96253.73;;;7.10;100.00
16834;BME280;8533;48.426;10.868;2023-03-21T03:53:40;96251.86;;;7.08;100.00
16834;BME280;8533;48.426;10.868;2023-03-21T03:58:42;96251.52;;;7.05;100.00
16834;BME280;8533;48.426;10.868;2023-03-21T04:01:10;96253.03;;;7.03;100.00
16834;BME280;8533;48.426;10.868;2023-03-21T04:03:40;96254.55;;;7.02;100.00
16834;BME280;8533;48.426;10.868;2023-03-21T04:16:10;96250.72;;;7.04;100.00
16834;BME280;8533;48.426;10.868;2023-03-21T04:18:40;96249.26;;;7.08;100.00
16834;BME280;8533;48.426;10.868;2023-03-21T04:21:09;96248.54;;;7.10;100.00
16834;BME280;8533;48.426;10.868;2023-03-21T04:23:40;96246.52;;;7.12;100.00
16834;BME280;8533;48.426;10.868;2023-03-21T04:26:09;96251.77;;;7.15;100.00
16834;BME280;8533;48.426;10.868;2023-03-21T04:28:37;96244.04;;;7.17;100.00
16834;BME280;8533;48.426;10.868;2023-03-21T04:31:08;96243.31;;;7.19;100.00
16834;BME280;8533;48.426;10.868;2023-03-21T04:40:19;96240.72;;;7.19;100.00
16834;BME280;8533;48.426;10.868;2023-03-21T04:46:08;96246.50;;;7.21;100.00
16834;BME280;8533;48.426;10.868;2023-03-21T04:48:37;96250.23;;;7.25;100.00
16834;BME280;8533;48.426;10.868;2023-03-21T04:51:06;96248.94;;;7.25;100.00
16834;BME280;8533;48.426;10.868;2023-03-21T04:56:55;96244.09;;;7.29;100.00
16834;BME280;8533;48.426;10.868;2023-03-21T05:02:20;96241.75;;;7.30;100.00
16834;BME280;8533;48.426;10.868;2023-03-21T05:04:47;96248.21;;;7.27;100.00
16834;BME280;8533;48.426;10.868;2023-03-21T05:07:15;96239.91;;;7.28;100.00
16834;BME280;8533;48.426;10.868;2023-03-21T05:09:42;96243.52;;;7.27;100.00
16834;BME280;8533;48.426;10.868;2023-03-21T05:12:10;96249.01;;;7.28;100.00
16834;BME280;8533;48.426;10.868;2023-03-21T05:14:37;96245.25;;;7.24;100.00
16834;BME280;8533;48.426;10.868;2023-03-21T05:17:04;96244.41;;;7.21;100.00
16834;BME280;8533;48.426;10.868;2023-03-21T05:19:33;96244.91;;;7.20;100.00
16834;BME280;8533;48.426;10.868;2023-03-21T05:22:05;96238.84;;;7.17;100.00
16834;BME280;8533;48.426;10.868;2023-03-21T05:24:34;96243.83;;;7.19;100.00
16834;BME280;8533;48.426;10.868;2023-03-21T05:27:04;96238.33;;;7.18;100.00
16834;BME280;8533;48.426;10.868;2023-03-21T05:29:33;96233.20;;;7.20;100.00
16834;BME280;8533;48.426;10.868;2023-03-21T05:32:01;96235.73;;;7.18;100.00
16834;BME280;8533;48.426;10.868;2023-03-21T05:34:28;96235.23;;;7.18;100.00
16834;BME280;8533;48.426;10.868;2023-03-21T05:36:57;96236.02;;;7.19;100.00
16834;BME280;8533;48.426;10.868;2023-03-21T05:39:24;96241.80;;;7.21;100.00
16834;BME280;8533;48.426;10.868;2023-03-21T05:41:52;96237.11;;;7.20;100.00
16834;BME280;8533;48.426;10.868;2023-03-21T05:44:19;96241.30;;;7.21;100.00
16834;BME280;8533;48.426;10.868;2023-03-21T05:46:46;96246.84;;;7.25;100.00
16834;BME280;8533;48.426;10.868;2023-03-21T05:49:14;96248.42;;;7.26;100.00
16834;BME280;8533;48.426;10.868;2023-03-21T05:51:41;96250.52;;;7.26;100.00
16834;BME280;8533;48.426;10.868;2023-03-21T05:54:10;96252.41;;;7.28;100.00
16834;BME280;8533;48.426;10.868;2023-03-21T05:56:39;96256.64;;;7.32;100.00
16834;BME280;8533;48.426;10.868;2023-03-21T05:59:07;96260.04;;;7.33;100.00
16834;BME280;8533;48.426;10.868;2023-03-21T06:01:34;96257.59;;;7.38;100.00
16834;BME280;8533;48.426;10.868;2023-03-21T06:04:01;96254.23;;;7.40;100.00
16834;BME280;8533;48.426;10.868;2023-03-21T06:06:29;96258.50;;;7.43;100.00
16834;BME280;8533;48.426;10.868;2023-03-21T06:08:56;96262.19;;;7.45;100.00
16834;BME280;8533;48.426;10.868;2023-03-21T06:11:32;96262.23;;;7.47;100.00
16834;BME280;8533;48.426;10.868;2023-03-21T06:13:54;96260.20;;;7.49;100.00
16834;BME280;8533;48.426;10.868;2023-03-21T06:16:22;96264.98;;;7.52;100.00
16834;BME280;8533;48.426;10.868;2023-03-21T06:18:49;96266.61;;;7.56;100.00
16834;BME280;8533;48.426;10.868;2023-03-21T06:21:17;96264.59;;;7.58;100.00
16834;BME280;8533;48.426;10.868;2023-03-21T06:23:44;96264.30;;;7.57;100.00
16834;BME280;8533;48.426;10.868;2023-03-21T06:26:12;96267.48;;;7.59;100.00
16834;BME280;8533;48.426;10.868;2023-03-21T06:28:39;96270.95;;;7.62;100.00
16834;BME280;8533;48.426;10.868;2023-03-21T06:31:07;96261.84;;;7.62;100.00
16834;BME280;8533;48.426;10.868;2023-03-21T06:33:34;96271.06;;;7.67;100.00
16834;BME280;8533;48.426;10.868;2023-03-21T06:36:02;96262.53;;;7.69;100.00
16834;BME280;8533;48.426;10.868;2023-03-21T06:38:29;96258.23;;;7.75;100.00
16834;BME280;8533;48.426;10.868;2023-03-21T06:40:59;96264.86;;;7.80;100.00
16834;BME280;8533;48.426;10.868;2023-03-21T06:43:30;96271.94;;;7.82;100.00
16834;BME280;8533;48.426;10.868;2023-03-21T06:45:58;96269.73;;;7.88;100.00
16834;BME280;8533;48.426;10.868;2023-03-21T06:48:27;96272.13;;;7.89;100.00
16834;BME280;8533;48.426;10.868;2023-03-21T06:50:55;96264.66;;;7.93;100.00
16834;BME280;8533;48.426;10.868;2023-03-21T06:53:24;96266.66;;;8.00;100.00
16834;BME280;8533;48.426;10.868;2023-03-21T06:55:54;96273.49;;;8.03;100.00
16834;BME280;8533;48.426;10.868;2023-03-21T06:58:22;96264.22;;;8.08;100.00
16834;BME280;8533;48.426;10.868;2023-03-21T07:00:50;96273.80;;;8.16;100.00
16834;BME280;8533;48.426;10.868;2023-03-21T07:03:17;96262.18;;;8.21;100.00
16834;BME280;8533;48.426;10.868;2023-03-21T07:05:45;96266.26;;;8.29;100.00
16834;BME280;8533;48.426;10.868;2023-03-21T07:08:13;96268.54;;;8.25;100.00
16834;BME280;8533;48.426;10.868;2023-03-21T07:10:43;96271.66;;;8.36;100.00
16834;BME280;8533;48.426;10.868;2023-03-21T07:13:12;96262.96;;;8.43;100.00
16834;BME280;8533;48.426;10.868;2023-03-21T07:15:40;96267.32;;;8.51;100.00
16834;BME280;8533;48.426;10.868;2023-03-21T07:18:08;96272.22;;;8.62;100.00
16834;BME280;8533;48.426;10.868;2023-03-21T07:20:36;96273.30;;;8.63;100.00
16834;BME280;8533;48.426;10.868;2023-03-21T07:23:04;96278.00;;;8.75;100.00
16834;BME280;8533;48.426;10.868;2023-03-21T07:25:32;96271.00;;;8.78;100.00
16834;BME280;8533;48.426;10.868;2023-03-21T07:28:01;96268.55;;;8.86;100.00
16834;BME280;8533;48.426;10.868;2023-03-21T07:30:28;96272.06;;;8.92;100.00
16834;BME280;8533;48.426;10.868;2023-03-21T07:32:55;96268.53;;;8.98;100.00
16834;BME280;8533;48.426;10.868;2023-03-21T07:35:23;96268.84;;;9.01;100.00
16834;BME280;8533;48.426;10.868;2023-03-21T07:37:50;96265.44;;;9.01;100.00
16834;BME280;8533;48.426;10.868;2023-03-21T07:40:18;96264.56;;;9.09;100.00
16834;BME280;8533;48.426;10.868;2023-03-21T07:42:47;96263.41;;;9.17;100.00
16834;BME280;8533;48.426;10.868;2023-03-21T07:45:16;96256.84;;;9.29;100.00
16834;BME280;8533;48.426;10.868;2023-03-21T07:47:45;96181.80;;;8.91;100.00
16834;BME280;8533;48.426;10.868;2023-03-21T07:50:13;96255.53;;;9.43;100.00
16834;BME280;8533;48.426;10.868;2023-03-21T07:52:41;96260.98;;;9.55;100.00
16834;BME280;8533;48.426;10.868;2023-03-21T07:55:09;96264.00;;;9.50;100.00
16834;BME280;8533;48.426;10.868;2023-03-21T07:57:36;96260.40;;;9.68;100.00
16834;BME280;8533;48.426;10.868;2023-03-21T08:00:05;96269.51;;;9.82;100.00
16834;BME280;8533;48.426;10.868;2023-03-21T08:02:33;96267.02;;;9.89;100.00
16834;BME280;8533;48.426;10.868;2023-03-21T08:05:00;96266.77;;;10.05;100.00
16834;BME280;8533;48.426;10.868;2023-03-21T08:07:29;96268.66;;;10.10;97.89
16834;BME280;8533;48.426;10.868;2023-03-21T08:09:57;96266.49;;;10.04;98.63
16834;BME280;8533;48.426;10.868;2023-03-21T08:12:25;96265.53;;;10.10;100.00
16834;BME280;8533;48.426;10.868;2023-03-21T08:14:52;96266.30;;;10.25;99.10
16834;BME280;8533;48.426;10.868;2023-03-21T08:17:20;96268.62;;;10.41;97.66
16834;BME280;8533;48.426;10.868;2023-03-21T08:19:47;96271.38;;;10.51;94.62
16834;BME280;8533;48.426;10.868;2023-03-21T08:22:14;96268.69;;;10.65;93.39
16834;BME280;8533;48.426;10.868;2023-03-21T08:24:42;96271.58;;;10.66;93.22
16834;BME280;8533;48.426;10.868;2023-03-21T08:27:09;96273.31;;;10.77;91.67
16834;BME280;8533;48.426;10.868;2023-03-21T08:29:37;96269.72;;;10.83;89.37
16834;BME280;8533;48.426;10.868;2023-03-21T08:32:07;96268.69;;;10.84;90.97
16834;BME280;8533;48.426;10.868;2023-03-21T08:34:34;96255.38;;;10.88;90.43
16834;BME280;8533;48.426;10.868;2023-03-21T08:37:02;96260.03;;;11.05;89.25
16834;BME280;8533;48.426;10.868;2023-03-21T08:39:29;96255.48;;;11.20;88.44
16834;BME280;8533;48.426;10.868;2023-03-21T08:41:57;96257.22;;;11.34;85.80
16834;BME280;8533;48.426;10.868;2023-03-21T08:44:24;96252.34;;;11.18;87.80
16834;BME280;8533;48.426;10.868;2023-03-21T08:46:52;96255.83;;;11.26;84.05
16834;BME280;8533;48.426;10.868;2023-03-21T08:49:19;96261.23;;;11.20;87.51
16834;BME280;8533;48.426;10.868;2023-03-21T08:51:47;96255.39;;;11.37;86.83
16834;BME280;8533;48.426;10.868;2023-03-21T08:54:21;96249.55;;;11.54;87.98
16834;BME280;8533;48.426;10.868;2023-03-21T08:56:48;96253.06;;;11.65;84.87
16834;BME280;8533;48.426;10.868;2023-03-21T08:59:16;96256.55;;;11.22;86.40
16834;BME280;8533;48.426;10.868;2023-03-21T09:01:43;96248.92;;;11.18;86.92
16834;BME280;8533;48.426;10.868;2023-03-21T09:04:10;96248.84;;;11.34;84.34
16834;BME280;8533;48.426;10.868;2023-03-21T09:06:39;96243.95;;;11.43;83.74
16834;BME280;8533;48.426;10.868;2023-03-21T09:09:08;96242.78;;;11.58;83.91
16834;BME280;8533;48.426;10.868;2023-03-21T09:11:36;96244.81;;;11.78;80.55
16834;BME280;8533;48.426;10.868;2023-03-21T09:14:04;96245.78;;;11.99;76.73
16834;BME280;8533;48.426;10.868;2023-03-21T09:16:33;96243.22;;;12.06;77.01
16834;BME280;8533;48.426;10.868;2023-03-21T09:19:00;96240.74;;;12.29;77.47
16834;BME280;8533;48.426;10.868;2023-03-21T09:21:29;96244.23;;;12.40;76.12
16834;BME280;8533;48.426;10.868;2023-03-21T09:23:56;96244.77;;;12.44;75.30
16834;BME280;8533;48.426;10.868;2023-03-21T09:26:26;96243.11;;;12.33;74.74
16834;BME280;8533;48.426;10.868;2023-03-21T09:28:54;96241.10;;;12.45;72.40
16834;BME280;8533;48.426;10.868;2023-03-21T09:31:24;96242.20;;;12.54;72.79
16834;BME280;8533;48.426;10.868;2023-03-21T09:33:53;96239.38;;;12.64;74.19
16834;BME280;8533;48.426;10.868;2023-03-21T09:36:23;96247.62;;;12.87;69.23
16834;BME280;8533;48.426;10.868;2023-03-21T09:38:53;96241.11;;;13.03;68.00
16834;BME280;8533;48.426;10.868;2023-03-21T09:41:48;96242.13;;;12.94;70.10
16834;BME280;8533;48.426;10.868;2023-03-21T09:47:15;96236.09;;;12.93;68.18
16834;BME280;8533;48.426;10.868;2023-03-21T09:49:45;96239.50;;;12.94;69.35
16834;BME280;8533;48.426;10.868;2023-03-21T09:52:26;96239.02;;;13.07;67.98
16834;BME280;8533;48.426;10.868;2023-03-21T09:54:54;96235.06;;;12.97;68.95
16834;BME280;8533;48.426;10.868;2023-03-21T09:57:28;96232.18;;;13.06;68.44
16834;BME280;8533;48.426;10.868;2023-03-21T09:59:56;96232.47;;;13.10;67.63
16834;BME280;8533;48.426;10.868;2023-03-21T10:02:32;96229.42;;;13.35;67.07
16834;BME280;8533;48.426;10.868;2023-03-21T10:05:00;96219.92;;;13.24;66.18
16834;BME280;8533;48.426;10.868;2023-03-21T10:07:38;96217.56;;;13.25;65.03
16834;BME280;8533;48.426;10.868;2023-03-21T10:10:01;96217.98;;;12.99;68.87
16834;BME280;8533;48.426;10.868;2023-03-21T10:12:29;96212.48;;;13.06;67.69
16834;BME280;8533;48.426;10.868;2023-03-21T10:14:59;96207.86;;;13.38;66.84
16834;BME280;8533;48.426;10.868;2023-03-21T10:17:35;96207.91;;;13.54;66.29
16834;BME280;8533;48.426;10.868;2023-03-21T10:20:16;96206.87;;;13.70;64.33
16834;BME280;8533;48.426;10.868;2023-03-21T10:22:42;96199.71;;;13.32;67.70
16834;BME280;8533;48.426;10.868;2023-03-21T10:25:23;96202.12;;;13.77;64.33
16834;BME280;8533;48.426;10.868;2023-03-21T10:27:46;96191.86;;;13.73;63.80
16834;BME280;8533;48.426;10.868;2023-03-21T10:30:27;96200.27;;;13.88;63.86
16834;BME280;8533;48.426;10.868;2023-03-21T10:32:51;96197.92;;;13.76;65.08
16834;BME280;8533;48.426;10.868;2023-03-21T10:35:18;96196.02;;;14.30;62.37
16834;BME280;8533;48.426;10.868;2023-03-21T10:37:46;96191.28;;;14.34;62.75
16834;BME280;8533;48.426;10.868;2023-03-21T10:40:15;96185.52;;;14.14;62.13
16834;BME280;8533;48.426;10.868;2023-03-21T10:42:43;96193.68;;;14.16;62.14
16834;BME280;8533;48.426;10.868;2023-03-21T10:45:13;96180.25;;;14.25;62.07
16834;BME280;8533;48.426;10.868;2023-03-21T10:47:42;96181.30;;;14.11;62.59
16834;BME280;8533;48.426;10.868;2023-03-21T10:50:15;96176.30;;;14.22;63.72
16834;BME280;8533;48.426;10.868;2023-03-21T10:52:48;96179.86;;;14.69;61.20
16834;BME280;8533;48.426;10.868;2023-03-21T10:55:28;96169.97;;;15.03;59.53
16834;BME280;8533;48.426;10.868;2023-03-21T10:57:56;96178.44;;;15.00;59.89
16834;BME280;8533;48.426;10.868;2023-03-21T11:00:28;96176.56;;;15.47;58.31
16834;BME280;8533;48.426;10.868;2023-03-21T11:02:56;96178.08;;;15.58;57.53
16834;BME280;8533;48.426;10.868;2023-03-21T11:08:09;96169.69;;;15.53;57.67
16834;BME280;8533;48.426;10.868;2023-03-21T11:11:23;96169.55;;;16.00;57.07
16834;BME280;8533;48.426;10.868;2023-03-21T11:13:17;96174.30;;;16.00;56.74
16834;BME280;8533;48.426;10.868;2023-03-21T11:15:52;96167.45;;;16.26;54.79
16834;BME280;8533;48.426;10.868;2023-03-21T11:18:22;96165.59;;;16.00;57.77
16834;BME280;8533;48.426;10.868;2023-03-21T11:20:56;96167.64;;;16.34;54.69
16834;BME280;8533;48.426;10.868;2023-03-21T11:23:26;96157.33;;;16.83;53.97
16834;BME280;8533;48.426;10.868;2023-03-21T11:26:01;96163.50;;;16.76;54.71
16834;BME280;8533;48.426;10.868;2023-03-21T11:28:40;96160.13;;;16.92;54.45
16834;BME280;8533;48.426;10.868;2023-03-21T11:31:05;96152.25;;;17.08;53.54
16834;BME280;8533;48.426;10.868;2023-03-21T11:33:40;96153.75;;;16.24;55.81
16834;BME280;8533;48.426;10.868;2023-03-21T11:38:52;96139.23;;;16.71;54.93
16834;BME280;8533;48.426;10.868;2023-03-21T11:41:33;96141.76;;;16.58;53.84
16834;BME280;8533;48.426;10.868;2023-03-21T11:44:00;96132.70;;;16.43;54.55
16834;BME280;8533;48.426;10.868;2023-03-21T11:46:30;96129.09;;;16.57;54.08
16834;BME280;8533;48.426;10.868;2023-03-21T11:48:59;96133.12;;;16.76;54.15
16834;BME280;8533;48.426;10.868;2023-03-21T11:51:39;96125.33;;;17.03;54.17
16834;BME280;8533;48.426;10.868;2023-03-21T11:56:37;96111.04;;;17.58;52.29
16834;BME280;8533;48.426;10.868;2023-03-21T11:59:16;96109.20;;;17.40;51.59
16834;BME280;8533;48.426;10.868;2023-03-21T12:04:21;96117.04;;;17.29;52.68
16834;BME280;8533;48.426;10.868;2023-03-21T12:10:15;96101.72;;;17.63;50.39
16834;BME280;8533;48.426;10.868;2023-03-21T12:12:49;96094.94;;;17.22;50.56
16834;BME280;8533;48.426;10.868;2023-03-21T12:23:50;96079.55;;;17.27;51.11
16834;BME280;8533;48.426;10.868;2023-03-21T12:26:25;96077.73;;;17.06;51.20
16834;BME280;8533;48.426;10.868;2023-03-21T12:34:31;96061.59;;;16.89;52.91
16834;BME280;8533;48.426;10.868;2023-03-21T12:39:33;96063.47;;;18.92;48.54
16834;BME280;8533;48.426;10.868;2023-03-21T12:45:11;96051.11;;;18.99;47.84
16834;BME280;8533;48.426;10.868;2023-03-21T12:47:23;96056.61;;;17.84;50.04
16834;BME280;8533;48.426;10.868;2023-03-21T12:49:57;96045.29;;;19.11;47.12
16834;BME280;8533;48.426;10.868;2023-03-21T12:52:28;96038.70;;;19.30;47.38
16834;BME280;8533;48.426;10.868;2023-03-21T12:57:29;96040.27;;;20.04;45.39
16834;BME280;8533;48.426;10.868;2023-03-21T13:00:04;96031.19;;;19.97;45.22
16834;BME280;8533;48.426;10.868;2023-03-21T13:02:38;96027.81;;;20.13;44.53
16834;BME280;8533;48.426;10.868;2023-03-21T13:05:29;96024.84;;;19.44;45.58
16834;BME280;8533;48.426;10.868;2023-03-21T13:08:20;96018.25;;;19.64;43.91
16834;BME280;8533;48.426;10.868;2023-03-21T13:10:48;96018.83;;;19.19;44.69
16834;BME280;8533;48.426;10.868;2023-03-21T13:13:37;96017.14;;;19.01;45.34
16834;BME280;8533;48.426;10.868;2023-03-21T13:16:22;96021.11;;;18.79;46.26
16834;BME280;8533;48.426;10.868;2023-03-21T13:19:10;96010.49;;;18.29;47.75
16834;BME280;8533;48.426;10.868;2023-03-21T13:21:45;96007.84;;;19.23;46.72
16834;BME280;8533;48.426;10.868;2023-03-21T13:24:24;96009.47;;;19.22;45.68
16834;BME280;8533;48.426;10.868;2023-03-21T13:27:34;96004.24;;;18.86;46.04
16834;BME280;8533;48.426;10.868;2023-03-21T13:29:40;96000.97;;;19.22;46.50
16834;BME280;8533;48.426;10.868;2023-03-21T13:32:06;96006.70;;;19.27;45.85
16834;BME280;8533;48.426;10.868;2023-03-21T13:34:30;96002.51;;;19.03;45.44
16834;BME280;8533;48.426;10.868;2023-03-21T13:36:57;96002.54;;;19.23;44.42
16834;BME280;8533;48.426;10.868;2023-03-21T13:39:28;95998.70;;;18.85;46.02
16834;BME280;8533;48.426;10.868;2023-03-21T13:42:01;95998.56;;;18.90;46.13
16834;BME280;8533;48.426;10.868;2023-03-21T13:44:42;95990.83;;;18.57;46.28
16834;BME280;8533;48.426;10.868;2023-03-21T13:47:29;95991.94;;;18.56;46.63
16834;BME280;8533;48.426;10.868;2023-03-21T13:50:22;95980.25;;;18.68;46.67
16834;BME280;8533;48.426;10.868;2023-03-21T13:55:39;95981.11;;;18.53;46.88
16834;BME280;8533;48.426;10.868;2023-03-21T14:04:03;95979.38;;;18.10;48.54
16834;BME280;8533;48.426;10.868;2023-03-21T14:06:41;95974.73;;;18.04;48.12
16834;BME280;8533;48.426;10.868;2023-03-21T14:09:07;95969.41;;;17.79;48.80
16834;BME280;8533;48.426;10.868;2023-03-21T14:11:36;95969.25;;;17.87;49.50
16834;BME280;8533;48.426;10.868;2023-03-21T14:14:03;95971.41;;;17.99;48.86
16834;BME280;8533;48.426;10.868;2023-03-21T14:16:32;95970.72;;;17.79;49.16
16834;BME280;8533;48.426;10.868;2023-03-21T14:19:02;95970.34;;;17.72;48.87
16834;BME280;8533;48.426;10.868;2023-03-21T14:21:34;95972.88;;;17.64;49.28
16834;BME280;8533;48.426;10.868;2023-03-21T14:24:12;95965.80;;;17.59;49.29
16834;BME280;8533;48.426;10.868;2023-03-21T14:26:41;95966.38;;;17.56;49.67
16834;BME280;8533;48.426;10.868;2023-03-21T14:29:13;95961.27;;;17.32;50.21
16834;BME280;8533;48.426;10.868;2023-03-21T14:31:39;95963.57;;;17.20;51.05
16834;BME280;8533;48.426;10.868;2023-03-21T14:34:08;95957.45;;;17.08;51.68
16834;BME280;8533;48.426;10.868;2023-03-21T14:36:38;95958.60;;;17.19;52.16
16834;BME280;8533;48.426;10.868;2023-03-21T14:39:13;95950.72;;;17.00;51.74
16834;BME280;8533;48.426;10.868;2023-03-21T14:41:50;95952.67;;;16.94;51.56
16834;BME280;8533;48.426;10.868;2023-03-21T14:44:26;95953.55;;;16.71;51.17
16834;BME280;8533;48.426;10.868;2023-03-21T14:47:02;95945.87;;;16.72;51.69
16834;BME280;8533;48.426;10.868;2023-03-21T14:49:32;95946.08;;;16.57;53.19
16834;BME280;8533;48.426;10.868;2023-03-21T14:52:03;95947.20;;;16.34;53.14
16834;BME280;8533;48.426;10.868;2023-03-21T14:54:35;95945.91;;;16.32;53.89
16834;BME280;8533;48.426;10.868;2023-03-21T14:57:11;95943.38;;;16.24;52.92
16834;BME280;8533;48.426;10.868;2023-03-21T14:59:41;95941.96;;;16.13;53.30
16834;BME280;8533;48.426;10.868;2023-03-21T15:02:32;95942.03;;;16.06;53.80
16834;BME280;8533;48.426;10.868;2023-03-21T15:04:46;95941.84;;;16.02;54.05
16834;BME280;8533;48.426;10.868;2023-03-21T15:07:25;95942.64;;;16.00;54.10
16834;BME280;8533;48.426;10.868;2023-03-21T15:09:54;95948.00;;;15.95;54.73
16834;BME280;8533;48.426;10.868;2023-03-21T15:12:22;95949.77;;;15.81;55.72
16834;BME280;8533;48.426;10.868;2023-03-21T15:14:50;95934.91;;;15.87;56.29